createdAt,value
2023-04-08T00:01:37.389Z,27.18
2023-04-08T00:04:06.093Z,27.23
2023-04-08T00:06:34.929Z,27.27
2023-04-08T00:09:04.340Z,27.30
2023-04-08T00:11:32.956Z,27.35
2023-04-08T00:14:02.025Z,27.40
2023-04-08T00:16:30.425Z,27.45
2023-04-08T00:19:01.467Z,27.49
2023-04-08T00:21:29.896Z,27.55
2023-04-08T00:23:58.216Z,27.62
2023-04-08T00:26:27.393Z,27.67
2023-04-08T00:28:56.861Z,27.72
2023-04-08T00:31:25.408Z,27.78
2023-04-08T00:33:53.916Z,27.83
2023-04-08T00:36:22.263Z,27.89
2023-04-08T00:38:54.060Z,27.95
2023-04-08T00:41:22.533Z,28.01
2023-04-08T00:43:50.955Z,28.06
2023-04-08T00:46:19.748Z,28.10
2023-04-08T00:48:50.405Z,28.18
2023-04-08T00:51:19.525Z,28.23
2023-04-08T00:53:47.928Z,28.29
2023-04-08T00:56:16.315Z,28.35
2023-04-08T00:58:46.568Z,28.40
2023-04-08T01:01:24.945Z,28.46
2023-04-08T01:04:08.566Z,28.50
2023-04-08T01:06:36.909Z,28.55
2023-04-08T01:09:07.285Z,28.60
2023-04-08T01:11:39.763Z,28.64
2023-04-08T01:14:11.219Z,28.69
2023-04-08T01:16:43.705Z,28.71
2023-04-08T01:19:25.711Z,28.75
2023-04-08T01:21:56.395Z,28.79
2023-04-08T01:24:35.123Z,28.84
2023-04-08T01:27:05.253Z,28.88
2023-04-08T01:29:35.289Z,28.92
2023-04-08T01:32:04.650Z,28.97
2023-04-08T01:34:34.395Z,29.03
2023-04-08T01:37:05.294Z,29.08
2023-04-08T01:39:35.108Z,29.13
2023-04-08T01:42:04.593Z,29.19
2023-04-08T01:44:34.561Z,29.24
2023-04-08T01:47:04.679Z,29.29
2023-04-08T01:49:33.884Z,29.36
2023-04-08T01:52:02.914Z,29.41
2023-04-08T01:54:31.308Z,29.46
2023-04-08T01:57:02.560Z,29.52
2023-04-08T01:59:36.440Z,29.61
2023-04-08T02:02:08.435Z,29.67
2023-04-08T02:04:37.790Z,29.73
2023-04-08T02:07:07.176Z,29.78
2023-04-08T02:09:35.829Z,29.86
2023-04-08T02:12:04.335Z,29.91
2023-04-08T02:14:33.209Z,29.97
2023-04-08T02:17:11.886Z,30.04
2023-04-08T02:19:50.150Z,30.12
2023-04-08T02:22:31.359Z,30.20
2023-04-08T02:25:01.757Z,30.26
2023-04-08T02:27:34.938Z,30.32
2023-04-08T02:30:06.920Z,30.39
2023-04-08T02:32:36.925Z,30.46
2023-04-08T02:35:06.602Z,30.55
2023-04-08T02:37:35.481Z,30.63
2023-04-08T02:40:04.097Z,30.72
2023-04-08T02:42:32.496Z,30.82
2023-04-08T02:45:00.846Z,30.88
2023-04-08T02:47:29.218Z,30.93
2023-04-08T02:49:57.575Z,30.99
2023-04-08T02:52:25.935Z,31.05
2023-04-08T02:54:54.276Z,31.12
2023-04-08T02:57:22.782Z,31.19
2023-04-08T02:59:51.155Z,31.26
2023-04-08T03:02:19.698Z,31.32
2023-04-08T03:04:48.065Z,31.38
2023-04-08T03:07:16.650Z,31.43
2023-04-08T03:09:45.011Z,31.48
2023-04-08T03:12:13.396Z,31.52
2023-04-08T03:14:41.839Z,31.60
2023-04-08T03:17:10.267Z,31.64
2023-04-08T03:19:38.669Z,31.70
2023-04-08T03:22:07.171Z,31.77
2023-04-08T03:24:35.488Z,31.83
2023-04-08T03:27:04.939Z,31.91
2023-04-08T03:29:33.684Z,31.97
2023-04-08T03:32:02.395Z,32.02
2023-04-08T03:34:30.812Z,32.06
2023-04-08T03:36:59.142Z,32.08
2023-04-08T03:39:27.687Z,32.13
2023-04-08T03:41:56.075Z,32.18
2023-04-08T03:44:24.556Z,32.22
2023-04-08T03:46:52.943Z,32.27
2023-04-08T03:49:21.422Z,32.34
2023-04-08T03:51:49.819Z,32.40
2023-04-08T03:54:18.201Z,32.47
2023-04-08T03:56:46.586Z,32.54
2023-04-08T03:59:14.966Z,32.58
2023-04-08T04:01:43.357Z,32.62
2023-04-08T04:04:12.224Z,32.66
2023-04-08T04:06:40.716Z,32.71
2023-04-08T04:09:09.145Z,32.76
2023-04-08T04:11:37.527Z,32.82
2023-04-08T04:14:05.991Z,32.86
2023-04-08T04:16:34.325Z,32.88
2023-04-08T04:19:02.828Z,32.90
2023-04-08T04:21:31.335Z,32.93
2023-04-08T04:23:59.692Z,32.97
2023-04-08T04:26:28.066Z,33.02
2023-04-08T04:28:56.905Z,33.09
2023-04-08T04:31:29.124Z,33.16
2023-04-08T04:33:57.566Z,33.21
2023-04-08T04:36:26.078Z,33.25
2023-04-08T04:38:54.566Z,33.32
2023-04-08T04:41:23.340Z,33.38
2023-04-08T04:43:51.951Z,33.45
2023-04-08T04:46:20.331Z,33.51
2023-04-08T04:48:49.032Z,33.56
2023-04-08T04:51:17.592Z,33.61
2023-04-08T04:53:45.904Z,33.64
2023-04-08T04:56:14.359Z,33.71
2023-04-08T04:58:43.274Z,33.81
2023-04-08T05:01:11.981Z,33.89
2023-04-08T05:03:40.528Z,33.96
2023-04-08T05:06:08.875Z,34.04
2023-04-08T05:08:37.678Z,34.08
2023-04-08T05:11:06.469Z,34.11
2023-04-08T05:13:34.823Z,34.13
2023-04-08T05:16:03.485Z,34.17
2023-04-08T05:18:31.911Z,34.22
2023-04-08T05:21:00.344Z,34.25
2023-04-08T05:23:28.700Z,34.33
2023-04-08T05:25:57.697Z,34.42
2023-04-08T05:28:26.097Z,34.53
2023-04-08T05:30:55.501Z,34.62
2023-04-08T05:33:23.894Z,34.68
2023-04-08T05:35:52.281Z,34.69
2023-04-08T05:38:20.756Z,34.74
2023-04-08T05:40:49.161Z,34.77
2023-04-08T05:43:17.572Z,34.80
2023-04-08T05:45:45.937Z,34.81
2023-04-08T05:48:14.420Z,34.78
2023-04-08T05:50:42.952Z,34.83
2023-04-08T05:53:11.807Z,34.84
2023-04-08T05:55:40.183Z,34.80
2023-04-08T05:58:08.725Z,34.80
2023-04-08T06:00:37.106Z,34.81
2023-04-08T06:03:05.705Z,34.81
2023-04-08T06:05:34.344Z,34.82
2023-04-08T06:08:02.692Z,34.81
2023-04-08T06:10:31.031Z,34.81
2023-04-08T06:12:59.395Z,34.83
2023-04-08T06:15:28.935Z,34.82
2023-04-08T06:17:57.314Z,34.80
2023-04-08T06:20:25.792Z,34.78
2023-04-08T06:22:54.160Z,34.78
2023-04-08T06:25:22.548Z,34.76
2023-04-08T06:27:50.911Z,34.79
2023-04-08T06:30:19.323Z,34.81
2023-04-08T06:32:50.359Z,34.87
2023-04-08T06:35:19.481Z,34.90
2023-04-08T06:37:47.835Z,34.92
2023-04-08T06:40:16.358Z,34.91
2023-04-08T06:42:45.517Z,34.88
2023-04-08T06:45:13.869Z,34.87
2023-04-08T06:47:42.309Z,34.87
2023-04-08T06:50:11.305Z,34.86
2023-04-08T06:52:39.829Z,34.88
2023-04-08T06:55:08.383Z,34.85
2023-04-08T06:57:36.695Z,34.80
2023-04-08T07:00:05.580Z,34.77
2023-04-08T07:02:34.029Z,34.77
2023-04-08T07:05:02.580Z,34.75
2023-04-08T07:07:31.207Z,34.78
2023-04-08T07:09:59.546Z,34.80
2023-04-08T07:12:27.890Z,34.84
2023-04-08T07:14:56.287Z,34.88
2023-04-08T07:17:24.642Z,34.91
2023-04-08T07:19:53.227Z,34.93
2023-04-08T07:22:21.925Z,34.93
2023-04-08T07:24:50.780Z,34.95
2023-04-08T07:27:19.183Z,34.95
2023-04-08T07:29:49.813Z,34.94
2023-04-08T07:32:18.458Z,34.92
2023-04-08T07:34:46.837Z,34.89
2023-04-08T07:37:15.197Z,34.88
2023-04-08T07:39:43.574Z,34.88
2023-04-08T07:42:11.957Z,34.85
2023-04-08T07:44:40.404Z,34.83
2023-04-08T07:47:08.773Z,34.82
2023-04-08T07:49:37.671Z,34.80
2023-04-08T07:52:07.296Z,34.77
2023-04-08T07:54:35.834Z,34.75
2023-04-08T07:57:04.242Z,34.72
2023-04-08T07:59:33.850Z,34.71
2023-04-08T08:02:02.388Z,34.67
2023-04-08T08:04:30.960Z,34.64
2023-04-08T08:06:59.491Z,34.60
2023-04-08T08:09:27.848Z,34.55
2023-04-08T08:11:56.260Z,34.49
2023-04-08T08:14:24.651Z,34.44
2023-04-08T08:16:53.615Z,34.40
2023-04-08T08:19:22.757Z,34.37
2023-04-08T08:21:51.503Z,34.35
2023-04-08T08:24:19.886Z,34.29
2023-04-08T08:26:50.169Z,34.24
2023-04-08T08:29:18.569Z,34.19
2023-04-08T08:31:47.195Z,34.14
2023-04-08T08:34:16.008Z,34.08
2023-04-08T08:36:44.443Z,34.07
2023-04-08T08:39:13.500Z,34.04
2023-04-08T08:41:43.252Z,34.00
2023-04-08T08:44:12.257Z,33.96
2023-04-08T08:46:49.022Z,33.93
2023-04-08T08:49:17.478Z,33.89
2023-04-08T08:51:48.314Z,33.85
2023-04-08T08:54:17.114Z,33.82
2023-04-08T08:56:45.478Z,33.77
2023-04-08T08:59:13.890Z,33.70
2023-04-08T09:01:42.689Z,33.66
2023-04-08T09:04:13.251Z,33.60
2023-04-08T09:06:42.343Z,33.56
2023-04-08T09:09:13.482Z,33.54
2023-04-08T09:11:43.611Z,33.50
2023-04-08T09:14:25.882Z,33.44
2023-04-08T09:16:54.889Z,33.39
2023-04-08T09:19:23.355Z,33.36
2023-04-08T09:22:14.214Z,33.31
2023-04-08T09:24:42.893Z,33.29
2023-04-08T09:27:11.388Z,33.24
2023-04-08T09:29:40.121Z,33.19
2023-04-08T09:32:08.743Z,33.15
2023-04-08T09:34:37.592Z,33.11
2023-04-08T09:37:06.013Z,33.07
2023-04-08T09:39:34.505Z,33.02
2023-04-08T09:42:09.192Z,32.99
2023-04-08T09:44:39.231Z,32.95
2023-04-08T09:47:20.301Z,32.91
2023-04-08T09:49:56.446Z,32.88
2023-04-08T09:52:50.755Z,32.82
2023-04-08T09:55:24.664Z,32.79
2023-04-08T09:58:28.587Z,32.74
2023-04-08T10:00:57.138Z,32.69
2023-04-08T10:03:41.441Z,32.65
2023-04-08T10:06:12.969Z,32.61
2023-04-08T10:08:41.834Z,32.55
2023-04-08T10:11:10.503Z,32.51
2023-04-08T10:13:39.309Z,32.47
2023-04-08T10:16:28.463Z,32.41
2023-04-08T10:18:58.311Z,32.37
2023-04-08T10:21:37.675Z,32.31
2023-04-08T10:24:13.296Z,32.27
2023-04-08T10:26:44.308Z,32.24
2023-04-08T10:29:31.930Z,32.21
2023-04-08T10:32:00.540Z,32.18
2023-04-08T10:34:29.280Z,32.13
2023-04-08T10:37:00.001Z,32.07
2023-04-08T10:39:28.486Z,32.02
2023-04-08T10:41:57.382Z,31.97
2023-04-08T10:44:28.651Z,31.91
2023-04-08T10:46:57.571Z,31.88
2023-04-08T10:49:34.836Z,31.82
2023-04-08T10:52:08.791Z,31.75
2023-04-08T10:54:39.404Z,31.67
2023-04-08T10:57:08.481Z,31.60
2023-04-08T10:59:37.868Z,31.54
2023-04-08T11:02:06.343Z,31.48
2023-04-08T11:04:34.923Z,31.41
2023-04-08T11:07:09.065Z,31.36
2023-04-08T11:09:37.498Z,31.31
2023-04-08T11:12:06.203Z,31.25
2023-04-08T11:14:34.810Z,31.17
2023-04-08T11:17:03.300Z,31.12
2023-04-08T11:19:31.744Z,31.06
2023-04-08T11:22:00.285Z,31.01
2023-04-08T11:24:29.361Z,30.95
2023-04-08T11:26:58.152Z,30.90
2023-04-08T11:29:26.592Z,30.86
2023-04-08T11:31:55.073Z,30.82
2023-04-08T11:34:26.737Z,30.76
2023-04-08T11:36:57.809Z,30.71
2023-04-08T11:39:27.348Z,30.67
2023-04-08T11:41:56.331Z,30.62
2023-04-08T11:44:34.455Z,30.58
2023-04-08T11:47:03.935Z,30.53
2023-04-08T11:49:46.704Z,30.50
2023-04-08T11:52:15.512Z,30.44
2023-04-08T11:54:44.587Z,30.38
2023-04-08T11:57:13.033Z,30.34
2023-04-08T11:59:41.427Z,30.31
2023-04-08T12:02:10.388Z,30.27
2023-04-08T12:04:38.985Z,30.23
2023-04-08T12:07:07.399Z,30.20
2023-04-08T12:09:35.790Z,30.17
2023-04-08T12:12:04.355Z,30.12
2023-04-08T12:14:32.719Z,30.09
2023-04-08T12:17:01.040Z,30.06
2023-04-08T12:19:29.864Z,30.04
2023-04-08T12:21:59.249Z,30.00
2023-04-08T12:24:27.693Z,29.99
2023-04-08T12:26:57.304Z,29.96
2023-04-08T12:29:25.696Z,29.95
2023-04-08T12:31:54.335Z,29.94
2023-04-08T12:34:23.518Z,29.91
2023-04-08T12:36:52.025Z,29.86
2023-04-08T12:39:20.874Z,29.83
2023-04-08T12:41:49.618Z,29.80
2023-04-08T12:44:18.246Z,29.76
2023-04-08T12:46:47.200Z,29.75
2023-04-08T12:49:15.662Z,29.73
2023-04-08T12:51:44.039Z,29.70
2023-04-08T12:54:12.452Z,29.66
2023-04-08T12:56:40.871Z,29.63
2023-04-08T12:59:09.181Z,29.62
2023-04-08T13:01:37.625Z,29.59
2023-04-08T13:04:06.314Z,29.57
2023-04-08T13:06:34.728Z,29.55
2023-04-08T13:09:03.133Z,29.52
2023-04-08T13:11:31.907Z,29.51
2023-04-08T13:14:00.356Z,29.47
2023-04-08T13:16:28.829Z,29.44
2023-04-08T13:18:57.172Z,29.41
2023-04-08T13:21:25.775Z,29.39
2023-04-08T13:23:54.110Z,29.37
2023-04-08T13:26:22.502Z,29.35
2023-04-08T13:28:57.297Z,29.34
2023-04-08T13:31:28.403Z,29.34
2023-04-08T13:33:58.217Z,29.33
2023-04-08T13:36:29.446Z,29.32
2023-04-08T13:38:58.636Z,29.32
2023-04-08T13:41:28.964Z,29.33
2023-04-08T13:43:57.765Z,29.32
2023-04-08T13:46:26.346Z,29.30
2023-04-08T13:48:54.943Z,29.29
2023-04-08T13:51:23.479Z,29.27
2023-04-08T13:53:52.102Z,29.25
2023-04-08T13:56:20.485Z,29.23
2023-04-08T13:58:56.471Z,29.21
2023-04-08T14:01:25.955Z,29.19
2023-04-08T14:03:54.476Z,29.17
2023-04-08T14:06:22.948Z,29.16
2023-04-08T14:08:51.966Z,29.14
2023-04-08T14:11:20.481Z,29.14
2023-04-08T14:13:48.819Z,29.13
2023-04-08T14:16:17.790Z,29.14
2023-04-08T14:18:46.406Z,29.12
2023-04-08T14:21:16.653Z,29.11
2023-04-08T14:23:45.079Z,29.10
2023-04-08T14:26:13.394Z,29.07
2023-04-08T14:28:41.966Z,29.06
2023-04-08T14:31:10.407Z,29.04
2023-04-08T14:33:40.072Z,29.02
2023-04-08T14:36:08.660Z,29.00
2023-04-08T14:38:37.249Z,28.98
2023-04-08T14:41:05.659Z,28.94
2023-04-08T14:43:34.019Z,28.92
2023-04-08T14:46:02.388Z,28.88
2023-04-08T14:48:31.756Z,28.83
2023-04-08T14:51:00.992Z,28.80
2023-04-08T14:53:29.396Z,28.77
2023-04-08T14:55:57.737Z,28.74
2023-04-08T14:58:26.414Z,28.72
2023-04-08T15:00:55.048Z,28.72
2023-04-08T15:03:23.790Z,28.71
2023-04-08T15:05:52.239Z,28.69
2023-04-08T15:08:20.608Z,28.68
2023-04-08T15:10:49.023Z,28.66
2023-04-08T15:13:17.636Z,28.65
2023-04-08T15:15:46.093Z,28.62
2023-04-08T15:18:14.474Z,28.60
2023-04-08T15:20:42.892Z,28.59
2023-04-08T15:23:11.268Z,28.59
2023-04-08T15:25:39.807Z,28.58
2023-04-08T15:28:08.918Z,28.58
2023-04-08T15:30:37.335Z,28.54
2023-04-08T15:33:06.117Z,28.55
2023-04-08T15:35:34.735Z,28.53
2023-04-08T15:38:03.395Z,28.50
2023-04-08T15:40:35.208Z,28.48
2023-04-08T15:43:04.819Z,28.46
2023-04-08T15:45:34.345Z,28.43
2023-04-08T15:48:02.715Z,28.43
2023-04-08T15:50:31.669Z,28.39
2023-04-08T15:53:00.061Z,28.38
2023-04-08T15:55:28.417Z,28.35
2023-04-08T15:57:58.062Z,28.33
2023-04-08T16:02:55.518Z,28.30
2023-04-08T16:05:24.040Z,28.29
2023-04-08T16:07:52.771Z,28.27
2023-04-08T16:10:21.234Z,28.25
2023-04-08T16:12:50.268Z,28.22
2023-04-08T16:15:18.677Z,28.21
2023-04-08T16:17:53.462Z,28.20
2023-04-08T16:20:22.683Z,28.21
2023-04-08T16:22:51.338Z,28.21
2023-04-08T16:25:19.738Z,28.21
2023-04-08T16:27:48.829Z,28.22
2023-04-08T16:30:17.348Z,28.24
2023-04-08T16:32:46.063Z,28.23
2023-04-08T16:35:15.085Z,28.23
2023-04-08T16:37:43.506Z,28.22
2023-04-08T16:40:12.357Z,28.20
2023-04-08T16:42:40.717Z,28.17
2023-04-08T16:45:09.846Z,28.15
2023-04-08T16:47:40.183Z,28.13
2023-04-08T16:50:10.138Z,28.11
2023-04-08T16:52:38.583Z,28.08
2023-04-08T16:55:07.582Z,28.06
2023-04-08T16:57:35.878Z,28.02
2023-04-08T17:00:04.546Z,28.02
2023-04-08T17:02:33.022Z,28.00
2023-04-08T17:05:01.664Z,27.98
2023-04-08T17:07:30.463Z,27.97
2023-04-08T17:09:58.843Z,27.95
2023-04-08T17:12:27.953Z,27.95
2023-04-08T17:14:56.346Z,27.94
2023-04-08T17:17:24.683Z,27.92
2023-04-08T17:19:53.102Z,27.92
2023-04-08T17:22:22.462Z,27.91
2023-04-08T17:24:50.885Z,27.90
2023-04-08T17:27:19.276Z,27.88
2023-04-08T17:29:47.700Z,27.86
2023-04-08T17:32:16.490Z,27.85
2023-04-08T17:34:44.829Z,27.84
2023-04-08T17:37:13.192Z,27.82
2023-04-08T17:39:41.921Z,27.81
2023-04-08T17:42:10.385Z,27.79
2023-04-08T17:44:39.366Z,27.79
2023-04-08T17:47:07.740Z,27.78
2023-04-08T17:49:36.477Z,27.78
2023-04-08T17:52:04.916Z,27.76
2023-04-08T17:54:35.407Z,27.75
2023-04-08T17:57:04.243Z,27.75
2023-04-08T17:59:32.694Z,27.75
2023-04-08T18:02:01.202Z,27.74
2023-04-08T18:04:30.817Z,27.75
2023-04-08T18:06:59.203Z,27.75
2023-04-08T18:09:27.572Z,27.74
2023-04-08T18:11:55.953Z,27.73
2023-04-08T18:14:24.310Z,27.72
2023-04-08T18:16:52.781Z,27.70
2023-04-08T18:19:21.183Z,27.71
2023-04-08T18:21:50.147Z,27.71
2023-04-08T18:24:18.510Z,27.70
2023-04-08T18:26:54.326Z,27.69
2023-04-08T18:29:26.342Z,27.69
2023-04-08T18:31:54.755Z,27.69
2023-04-08T18:34:25.526Z,27.69
2023-04-08T18:36:54.121Z,27.68
2023-04-08T18:39:22.530Z,27.68
2023-04-08T18:41:50.894Z,27.67
2023-04-08T18:44:19.282Z,27.65
2023-04-08T18:46:47.657Z,27.66
2023-04-08T18:49:16.385Z,27.65
2023-04-08T18:51:55.444Z,27.64
2023-04-08T18:54:30.671Z,27.64
2023-04-08T18:56:59.361Z,27.63
2023-04-08T18:59:30.918Z,27.64
2023-04-08T19:01:59.486Z,27.62
2023-04-08T19:04:28.245Z,27.62
2023-04-08T19:06:57.317Z,27.61
2023-04-08T19:09:25.756Z,27.59
2023-04-08T19:11:54.509Z,27.58
2023-04-08T19:14:22.947Z,27.58
2023-04-08T19:16:51.287Z,27.57
2023-04-08T19:19:19.688Z,27.55
2023-04-08T19:21:48.910Z,27.53
2023-04-08T19:24:17.407Z,27.52
2023-04-08T19:26:45.817Z,27.52
2023-04-08T19:29:14.790Z,27.50
2023-04-08T19:31:43.348Z,27.49
2023-04-08T19:34:12.233Z,27.48
2023-04-08T19:36:40.594Z,27.46
2023-04-08T19:39:08.979Z,27.45
2023-04-08T19:41:37.696Z,27.42
2023-04-08T19:44:06.345Z,27.40
2023-04-08T19:46:34.936Z,27.37
2023-04-08T19:49:03.385Z,27.34
2023-04-08T19:51:33.428Z,27.31
2023-04-08T19:54:01.781Z,27.28
2023-04-08T19:56:34.747Z,27.25
2023-04-08T19:59:03.208Z,27.23
2023-04-08T20:01:31.846Z,27.18
2023-04-08T20:04:00.329Z,27.17
2023-04-08T20:06:29.257Z,27.14
2023-04-08T20:08:58.151Z,27.12
2023-04-08T20:11:26.588Z,27.10
2023-04-08T20:13:55.097Z,27.06
2023-04-08T20:16:23.885Z,27.04
2023-04-08T20:18:52.586Z,27.02
2023-04-08T20:21:21.254Z,26.99
2023-04-08T20:23:49.582Z,26.96
2023-04-08T20:26:17.938Z,26.94
2023-04-08T20:28:47.106Z,26.91
2023-04-08T20:31:15.666Z,26.88
2023-04-08T20:36:33.703Z,26.85
2023-04-08T20:39:02.107Z,26.82
2023-04-08T20:41:30.545Z,26.79
2023-04-08T20:43:58.910Z,26.77
2023-04-08T20:46:27.563Z,26.74
2023-04-08T20:48:55.929Z,26.71
2023-04-08T20:51:24.668Z,26.69
2023-04-08T20:53:53.063Z,26.66
2023-04-08T20:56:22.044Z,26.63
2023-04-08T20:58:50.809Z,26.61
2023-04-08T21:01:19.482Z,26.60
2023-04-08T21:03:47.919Z,26.59
2023-04-08T21:06:20.581Z,26.55
2023-04-08T21:08:50.112Z,26.53
2023-04-08T21:11:19.064Z,26.49
2023-04-08T21:13:49.089Z,26.47
2023-04-08T21:16:18.096Z,26.45
2023-04-08T21:18:46.485Z,26.42
2023-04-08T21:21:15.370Z,26.41
2023-04-08T21:23:43.691Z,26.37
2023-04-08T21:26:14.222Z,26.35
2023-04-08T21:28:42.828Z,26.32
2023-04-08T21:31:12.284Z,26.31
2023-04-08T21:33:41.620Z,26.27
2023-04-08T21:36:10.133Z,26.25
2023-04-08T21:38:38.489Z,26.23
2023-04-08T21:41:06.922Z,26.20
2023-04-08T21:43:35.329Z,26.17
2023-04-08T21:46:03.820Z,26.17
2023-04-08T21:48:32.268Z,26.14
2023-04-08T21:51:00.618Z,26.14
2023-04-08T21:53:29.073Z,26.14
2023-04-08T21:55:57.623Z,26.12
2023-04-08T21:58:25.994Z,26.12
2023-04-08T22:00:54.373Z,26.10
2023-04-08T22:03:22.937Z,26.08
2023-04-08T22:05:51.860Z,26.07
2023-04-08T22:08:20.321Z,26.06
2023-04-08T22:10:48.794Z,26.04
2023-04-08T22:13:19.666Z,26.04
2023-04-08T22:15:47.994Z,26.03
2023-04-08T22:18:16.502Z,26.02
2023-04-08T22:20:44.853Z,26.01
2023-04-08T22:23:13.187Z,26.01
2023-04-08T22:25:41.606Z,25.99
2023-04-08T22:28:09.953Z,25.98
2023-04-08T22:30:38.285Z,25.96
2023-04-08T22:33:06.656Z,25.95
2023-04-08T22:35:35.212Z,25.94
2023-04-08T22:38:03.728Z,25.93
2023-04-08T22:40:32.263Z,25.90
2023-04-08T22:43:00.612Z,25.88
2023-04-08T22:45:28.947Z,25.86
2023-04-08T22:47:57.359Z,25.84
2023-04-08T22:50:25.755Z,25.81
2023-04-08T22:52:54.084Z,25.80
2023-04-08T22:55:22.429Z,25.77
2023-04-08T22:57:50.827Z,25.76
2023-04-08T23:00:19.400Z,25.73
2023-04-08T23:02:47.901Z,25.73
2023-04-08T23:05:16.477Z,25.72
2023-04-08T23:07:44.909Z,25.70
2023-04-08T23:10:13.302Z,25.68
2023-04-08T23:12:42.644Z,25.66
2023-04-08T23:15:11.294Z,25.65
2023-04-08T23:17:39.664Z,25.64
2023-04-08T23:20:08.599Z,25.62
2023-04-08T23:22:37.275Z,25.62
2023-04-08T23:25:05.884Z,25.61
2023-04-08T23:27:34.502Z,25.59
2023-04-08T23:30:06.499Z,25.61
2023-04-08T23:32:35.761Z,25.63
2023-04-08T23:35:04.688Z,25.63
2023-04-08T23:37:33.082Z,25.64
2023-04-08T23:40:01.498Z,25.66
2023-04-08T23:42:29.869Z,25.68
2023-04-08T23:44:58.193Z,25.69
2023-04-08T23:47:26.690Z,25.72
2023-04-08T23:49:55.079Z,25.73
2023-04-08T23:52:23.462Z,25.73
2023-04-08T23:54:52.438Z,25.75
2023-04-08T23:57:23.811Z,25.76
2023-04-08T23:59:52.286Z,25.80
